createdAt,value
2019-03-27T00:02:02.331Z,20.68
2019-03-27T00:04:31.504Z,22.80
2019-03-27T00:07:01.216Z,17.60
2019-03-27T00:09:30.336Z,14.73
2019-03-27T00:12:03.448Z,19.32
2019-03-27T00:14:32.593Z,22.30
2019-03-27T00:17:02.155Z,20.88
2019-03-27T00:19:34.787Z,20.43
2019-03-27T00:22:03.932Z,23.05
2019-03-27T00:24:33.126Z,19.10
2019-03-27T00:27:02.295Z,17.85
2019-03-27T00:29:32.513Z,22.82
2019-03-27T00:32:01.972Z,25.43
2019-03-27T00:34:31.166Z,18.05
2019-03-27T00:37:00.621Z,19.25
2019-03-27T00:39:29.788Z,19.10
2019-03-27T00:42:03.534Z,20.08
2019-03-27T00:44:36.030Z,23.32
2019-03-27T00:47:05.886Z,25.35
2019-03-27T00:49:35.016Z,26.33
2019-03-27T00:52:04.505Z,31.80
2019-03-27T00:54:37.441Z,20.55
2019-03-27T00:57:07.185Z,19.23
2019-03-27T00:59:36.740Z,16.05
2019-03-27T01:02:09.318Z,17.57
2019-03-27T01:04:38.456Z,23.30
2019-03-27T01:07:07.638Z,21.82
2019-03-27T01:09:40.750Z,20.27
2019-03-27T01:12:09.916Z,17.87
2019-03-27T01:14:39.089Z,19.27
2019-03-27T01:17:09.115Z,19.07
2019-03-27T01:19:38.586Z,16.95
2019-03-27T01:22:07.720Z,21.95
2019-03-27T01:24:36.841Z,26.17
2019-03-27T01:27:09.437Z,24.80
2019-03-27T01:29:39.352Z,21.15
2019-03-27T01:32:08.522Z,31.07
2019-03-27T01:34:37.998Z,26.10
2019-03-27T01:37:07.483Z,24.85
2019-03-27T01:39:36.967Z,26.33
2019-03-27T01:42:06.122Z,20.32
2019-03-27T01:44:38.577Z,25.75
2019-03-27T01:47:07.693Z,16.55
2019-03-27T01:49:36.795Z,23.07
2019-03-27T01:52:08.072Z,21.95
2019-03-27T01:54:37.989Z,25.75
2019-03-27T01:57:07.469Z,14.43
2019-03-27T01:59:37.921Z,22.58
2019-03-27T02:02:07.410Z,24.77
2019-03-27T02:04:37.005Z,28.47
2019-03-27T02:07:06.416Z,26.48
2019-03-27T02:09:39.063Z,34.33
2019-03-27T02:12:08.202Z,25.30
2019-03-27T02:14:38.425Z,23.42
2019-03-27T02:17:08.338Z,22.60
2019-03-27T02:19:38.319Z,28.52
2019-03-27T02:22:13.385Z,31.27
2019-03-27T02:24:46.035Z,26.82
2019-03-27T02:27:15.240Z,27.53
2019-03-27T02:29:44.375Z,44.45
2019-03-27T02:32:20.372Z,23.87
2019-03-27T02:34:48.287Z,28.45
2019-03-27T02:37:23.133Z,26.30
2019-03-27T02:39:55.734Z,33.23
2019-03-27T02:42:27.971Z,27.67
2019-03-27T02:45:00.562Z,30.30
2019-03-27T02:47:29.860Z,31.95
2019-03-27T02:50:02.690Z,27.80
2019-03-27T02:52:32.124Z,26.62
2019-03-27T02:55:04.620Z,32.48
2019-03-27T02:57:35.742Z,27.75
2019-03-27T03:00:06.196Z,26.02
2019-03-27T03:02:38.662Z,29.70
2019-03-27T03:05:11.624Z,30.23
2019-03-27T03:07:40.780Z,30.25
2019-03-27T03:10:12.932Z,27.62
2019-03-27T03:12:42.388Z,29.27
2019-03-27T03:15:19.794Z,28.83
2019-03-27T03:17:49.037Z,27.77
2019-03-27T03:20:21.202Z,33.08
2019-03-27T03:22:50.449Z,28.55
2019-03-27T03:25:26.359Z,28.75
2019-03-27T03:27:56.050Z,34.18
2019-03-27T03:30:25.181Z,28.47
2019-03-27T03:32:54.298Z,43.60
2019-03-27T03:35:23.422Z,25.25
2019-03-27T03:37:55.367Z,31.75
2019-03-27T03:40:24.670Z,35.85
2019-03-27T03:42:53.871Z,26.50
2019-03-27T03:45:23.087Z,30.72
2019-03-27T03:47:52.183Z,36.55
2019-03-27T03:50:50.380Z,37.95
2019-03-27T03:53:19.828Z,34.53
2019-03-27T03:55:49.046Z,37.73
2019-03-27T03:58:18.209Z,32.30
2019-03-27T04:00:47.665Z,35.55
2019-03-27T04:03:20.957Z,36.35
2019-03-27T04:05:50.103Z,27.52
2019-03-27T04:08:19.617Z,33.95
2019-03-27T04:10:49.393Z,36.15
2019-03-27T04:13:18.657Z,40.73
2019-03-27T04:15:48.089Z,37.17
2019-03-27T04:18:17.261Z,37.17
2019-03-27T04:20:46.420Z,26.23
2019-03-27T04:23:15.870Z,33.35
2019-03-27T04:26:07.982Z,35.95
2019-03-27T04:28:15.995Z,35.23
2019-03-27T04:30:45.191Z,38.00
2019-03-27T04:33:17.641Z,36.83
2019-03-27T04:35:47.121Z,33.60
2019-03-27T04:38:17.155Z,34.40
2019-03-27T04:40:49.662Z,32.28
2019-03-27T04:43:18.868Z,32.10
2019-03-27T04:45:48.712Z,31.55
2019-03-27T04:48:17.893Z,36.25
2019-03-27T04:50:47.044Z,39.73
2019-03-27T04:53:19.437Z,41.77
2019-03-27T04:55:48.641Z,36.68
2019-03-27T04:58:18.166Z,40.33
2019-03-27T05:00:47.353Z,35.60
2019-03-27T05:03:16.792Z,41.95
2019-03-27T05:05:45.922Z,40.63
2019-03-27T05:08:15.122Z,39.95
2019-03-27T05:10:44.568Z,41.68
2019-03-27T05:13:14.058Z,31.93
2019-03-27T05:15:43.218Z,31.75
2019-03-27T05:18:12.373Z,41.37
2019-03-27T05:20:41.889Z,35.38
2019-03-27T05:23:11.037Z,46.15
2019-03-27T05:25:40.495Z,50.98
2019-03-27T05:28:09.614Z,41.63
2019-03-27T05:30:38.780Z,32.17
2019-03-27T05:33:11.308Z,44.58
2019-03-27T05:35:41.176Z,45.98
2019-03-27T05:38:10.497Z,35.90
2019-03-27T05:40:42.562Z,38.38
2019-03-27T05:43:12.036Z,41.08
2019-03-27T05:45:42.265Z,39.75
2019-03-27T05:48:17.198Z,42.25
2019-03-27T05:50:48.647Z,39.00
2019-03-27T05:53:18.256Z,34.43
2019-03-27T05:55:48.202Z,37.88
2019-03-27T05:58:18.009Z,41.65
2019-03-27T06:00:49.340Z,39.27
2019-03-27T06:03:18.529Z,36.42
2019-03-27T06:05:47.680Z,41.58
2019-03-27T06:08:16.818Z,40.30
2019-03-27T06:10:46.247Z,39.08
2019-03-27T06:13:18.427Z,42.90
2019-03-27T06:15:50.669Z,42.50
2019-03-27T06:18:22.342Z,37.25
2019-03-27T06:20:51.826Z,42.08
2019-03-27T06:23:21.308Z,36.77
2019-03-27T06:25:50.518Z,42.20
2019-03-27T06:28:22.388Z,40.60
2019-03-27T06:30:54.599Z,38.83
2019-03-27T06:33:24.033Z,38.88
2019-03-27T06:35:53.227Z,37.88
2019-03-27T06:38:22.449Z,49.33
2019-03-27T06:40:51.616Z,38.45
2019-03-27T06:43:20.757Z,40.38
2019-03-27T06:45:50.421Z,37.25
2019-03-27T06:48:26.085Z,44.05
2019-03-27T06:50:50.813Z,45.90
2019-03-27T06:53:22.156Z,43.45
2019-03-27T06:55:51.681Z,33.73
2019-03-27T06:58:24.352Z,38.80
2019-03-27T07:00:55.655Z,37.88
2019-03-27T07:03:24.792Z,44.35
2019-03-27T07:05:54.267Z,44.55
2019-03-27T07:08:23.482Z,39.03
2019-03-27T07:10:52.671Z,42.95
2019-03-27T07:13:21.917Z,41.65
2019-03-27T07:15:53.735Z,42.67
2019-03-27T07:18:23.151Z,48.55
2019-03-27T07:20:52.344Z,45.05
2019-03-27T07:23:21.843Z,48.85
2019-03-27T07:25:52.011Z,59.65
2019-03-27T07:28:21.692Z,43.30
2019-03-27T07:30:51.210Z,42.88
2019-03-27T07:33:21.122Z,42.25
2019-03-27T07:35:50.626Z,42.43
2019-03-27T07:38:20.076Z,42.03
2019-03-27T07:40:49.202Z,45.70
2019-03-27T07:43:18.321Z,42.38
2019-03-27T07:45:50.937Z,37.67
2019-03-27T07:48:20.153Z,42.27
2019-03-27T07:50:49.300Z,40.12
2019-03-27T07:53:18.552Z,42.53
2019-03-27T07:55:49.163Z,40.67
2019-03-27T07:58:18.355Z,40.40
2019-03-27T08:00:51.343Z,41.48
2019-03-27T08:03:20.739Z,42.75
2019-03-27T08:05:49.981Z,30.95
2019-03-27T08:08:20.180Z,29.75
2019-03-27T08:10:53.499Z,38.53
2019-03-27T08:13:26.444Z,33.73
2019-03-27T08:15:55.580Z,34.00
2019-03-27T08:18:24.896Z,42.08
2019-03-27T08:20:54.757Z,30.75
2019-03-27T08:23:27.310Z,29.92
2019-03-27T08:25:56.867Z,37.28
2019-03-27T08:28:25.990Z,33.67
2019-03-27T08:30:55.461Z,31.60
2019-03-27T08:33:24.559Z,30.27
2019-03-27T08:35:54.219Z,34.00
2019-03-27T08:38:25.886Z,36.23
2019-03-27T08:40:55.023Z,34.48
2019-03-27T08:43:25.684Z,31.48
2019-03-27T08:45:57.760Z,36.83
2019-03-27T08:48:26.887Z,30.20
2019-03-27T08:51:01.737Z,36.33
2019-03-27T08:53:31.219Z,33.05
2019-03-27T08:56:00.352Z,33.28
2019-03-27T08:58:30.287Z,38.65
2019-03-27T09:01:00.939Z,29.52
2019-03-27T09:03:30.668Z,23.15
2019-03-27T09:06:03.191Z,34.43
2019-03-27T09:08:36.257Z,28.10
2019-03-27T09:11:05.426Z,29.42
2019-03-27T09:13:34.934Z,31.97
2019-03-27T09:16:04.516Z,28.07
2019-03-27T09:18:33.945Z,28.35
2019-03-27T09:21:03.395Z,30.40
2019-03-27T09:23:32.554Z,28.40
2019-03-27T09:26:01.675Z,31.93
2019-03-27T09:28:34.027Z,26.62
2019-03-27T09:31:06.625Z,24.47
2019-03-27T09:33:35.738Z,30.48
2019-03-27T09:36:05.034Z,24.85
2019-03-27T09:38:34.264Z,23.42
2019-03-27T09:41:03.679Z,28.67
2019-03-27T09:43:33.452Z,21.73
2019-03-27T09:46:03.219Z,22.82
2019-03-27T09:48:32.348Z,21.65
2019-03-27T09:51:02.076Z,17.60
2019-03-27T09:53:34.307Z,16.85
2019-03-27T09:56:18.002Z,20.75
2019-03-27T09:58:37.994Z,20.23
2019-03-27T10:01:08.283Z,18.67
2019-03-27T10:03:37.389Z,20.75
2019-03-27T10:06:08.440Z,18.32
2019-03-27T10:08:37.993Z,19.52
2019-03-27T10:11:08.778Z,15.60
2019-03-27T10:13:37.919Z,15.18
2019-03-27T10:16:07.451Z,20.25
2019-03-27T10:18:37.044Z,17.30
2019-03-27T10:21:06.566Z,16.75
2019-03-27T10:23:36.086Z,16.80
2019-03-27T10:26:08.261Z,17.30
2019-03-27T10:28:37.738Z,14.63
2019-03-27T10:31:06.871Z,17.67
2019-03-27T10:33:39.472Z,14.80
2019-03-27T10:36:09.244Z,17.23
2019-03-27T10:38:42.236Z,19.32
2019-03-27T10:41:11.641Z,14.80
2019-03-27T10:43:41.131Z,17.25
2019-03-27T10:46:10.837Z,18.90
2019-03-27T10:48:51.721Z,21.77
2019-03-27T10:51:11.016Z,12.50
2019-03-27T10:53:40.915Z,12.43
2019-03-27T10:56:10.367Z,16.87
2019-03-27T10:58:39.494Z,14.05
2019-03-27T11:01:08.673Z,13.58
2019-03-27T11:03:38.766Z,13.98
2019-03-27T11:06:08.595Z,14.47
2019-03-27T11:08:38.107Z,13.45
2019-03-27T11:11:07.610Z,16.73
2019-03-27T11:13:39.954Z,13.10
2019-03-27T11:16:09.073Z,9.75
2019-03-27T11:18:38.235Z,20.30
2019-03-27T11:21:07.645Z,17.37
2019-03-27T11:23:37.310Z,11.40
2019-03-27T11:26:06.437Z,10.03
2019-03-27T11:28:35.526Z,9.68
2019-03-27T11:31:05.293Z,15.43
2019-03-27T11:33:34.401Z,12.82
2019-03-27T11:36:03.511Z,13.58
2019-03-27T11:38:32.624Z,13.10
2019-03-27T11:41:01.740Z,12.68
2019-03-27T11:43:30.862Z,11.08
2019-03-27T11:46:00.306Z,11.63
2019-03-27T11:48:30.140Z,9.78
2019-03-27T11:50:59.493Z,12.03
2019-03-27T11:53:32.138Z,12.30
2019-03-27T11:56:03.378Z,14.78
2019-03-27T11:58:32.072Z,15.08
2019-03-27T12:01:04.703Z,14.38
2019-03-27T12:03:37.762Z,15.93
2019-03-27T12:06:08.843Z,16.50
2019-03-27T12:08:38.066Z,13.20
2019-03-27T12:11:12.785Z,10.88
2019-03-27T12:13:41.912Z,10.25
2019-03-27T12:16:11.007Z,12.70
2019-03-27T12:18:40.173Z,16.20
2019-03-27T12:21:09.501Z,9.63
2019-03-27T12:23:38.619Z,12.35
2019-03-27T12:26:07.709Z,9.00
2019-03-27T12:28:36.831Z,11.12
2019-03-27T12:31:05.949Z,14.05
2019-03-27T12:33:35.059Z,10.88
2019-03-27T12:36:07.307Z,11.95
2019-03-27T12:38:38.117Z,12.15
2019-03-27T12:41:10.389Z,10.95
2019-03-27T12:43:40.473Z,11.18
2019-03-27T12:46:09.579Z,11.40
2019-03-27T12:48:38.837Z,11.15
2019-03-27T12:51:13.164Z,9.50
2019-03-27T12:53:42.332Z,11.53
2019-03-27T12:56:11.436Z,9.53
2019-03-27T12:58:40.559Z,14.38
2019-03-27T13:01:10.363Z,9.65
2019-03-27T13:03:39.885Z,14.53
2019-03-27T13:06:09.019Z,9.05
2019-03-27T13:08:38.536Z,7.97
2019-03-27T13:11:07.917Z,10.65
2019-03-27T13:13:37.044Z,8.90
2019-03-27T13:16:07.381Z,10.38
2019-03-27T13:18:36.480Z,6.35
2019-03-27T13:21:05.570Z,9.33
2019-03-27T13:23:34.665Z,9.65
2019-03-27T13:26:03.779Z,11.10
2019-03-27T13:28:32.915Z,9.33
2019-03-27T13:31:01.984Z,11.63
2019-03-27T13:33:31.197Z,12.20
2019-03-27T13:36:00.365Z,8.78
2019-03-27T13:38:30.496Z,12.13
2019-03-27T13:40:59.584Z,9.88
2019-03-27T13:43:29.090Z,10.10
2019-03-27T13:45:58.640Z,10.32
2019-03-27T13:48:27.732Z,9.40
2019-03-27T13:50:56.860Z,9.98
2019-03-27T13:53:26.036Z,9.33
2019-03-27T13:55:55.180Z,8.53
2019-03-27T13:58:29.003Z,7.42
2019-03-27T14:01:00.231Z,12.75
2019-03-27T14:03:29.335Z,8.23
2019-03-27T14:05:58.478Z,8.55
2019-03-27T14:08:31.528Z,8.50
2019-03-27T14:11:00.871Z,9.93
2019-03-27T14:13:32.589Z,10.15
2019-03-27T14:16:03.364Z,9.38
2019-03-27T14:18:38.349Z,6.90
2019-03-27T14:21:07.454Z,8.70
2019-03-27T14:23:36.592Z,8.28
2019-03-27T14:26:05.719Z,9.58
2019-03-27T14:28:35.526Z,11.78
2019-03-27T14:31:04.670Z,9.93
2019-03-27T14:33:36.222Z,11.63
2019-03-27T14:36:05.335Z,9.05
2019-03-27T14:38:34.426Z,9.15
2019-03-27T14:41:03.870Z,13.72
2019-03-27T14:43:33.019Z,7.12
2019-03-27T14:46:02.137Z,11.70
2019-03-27T14:48:31.918Z,16.70
2019-03-27T14:51:01.026Z,9.18
2019-03-27T14:53:30.146Z,13.15
2019-03-27T14:55:59.317Z,12.15
2019-03-27T14:58:28.419Z,8.95
2019-03-27T15:01:00.860Z,9.25
2019-03-27T15:03:29.976Z,12.03
2019-03-27T15:05:59.107Z,13.32
2019-03-27T15:08:33.810Z,10.78
2019-03-27T15:11:02.921Z,7.75
2019-03-27T15:13:32.011Z,8.20
2019-03-27T15:16:01.204Z,7.72
2019-03-27T15:18:30.347Z,9.93
2019-03-27T15:21:00.380Z,12.23
2019-03-27T15:23:30.107Z,18.73
2019-03-27T15:25:59.218Z,14.63
2019-03-27T15:28:29.087Z,11.03
2019-03-27T15:30:58.224Z,7.62
2019-03-27T15:33:27.423Z,7.55
2019-03-27T15:35:56.626Z,9.63
2019-03-27T15:38:26.445Z,11.90
2019-03-27T15:40:55.570Z,12.05
2019-03-27T15:43:24.703Z,12.33
2019-03-27T15:45:55.444Z,11.65
2019-03-27T15:48:26.600Z,11.43
2019-03-27T15:50:59.043Z,11.60
2019-03-27T15:53:28.695Z,8.40
2019-03-27T15:55:57.844Z,11.45
2019-03-27T15:58:27.253Z,7.78
2019-03-27T16:00:56.723Z,9.45
2019-03-27T16:03:26.570Z,7.17
2019-03-27T16:05:55.700Z,9.78
2019-03-27T16:08:24.848Z,10.10
2019-03-27T16:10:53.965Z,9.93
2019-03-27T16:13:23.082Z,9.20
2019-03-27T16:15:52.212Z,11.85
2019-03-27T16:18:21.624Z,10.00
2019-03-27T16:20:51.422Z,6.10
2019-03-27T16:23:20.558Z,10.00
2019-03-27T16:25:49.717Z,6.92
2019-03-27T16:28:22.184Z,9.78
2019-03-27T16:30:51.796Z,15.53
2019-03-27T16:33:20.926Z,11.28
2019-03-27T16:35:51.947Z,16.65
2019-03-27T16:38:21.069Z,10.53
2019-03-27T16:40:50.333Z,6.83
2019-03-27T16:43:19.850Z,6.97
2019-03-27T16:45:51.114Z,7.47
2019-03-27T16:48:20.286Z,15.60
2019-03-27T16:50:50.238Z,8.20
2019-03-27T16:53:20.738Z,6.83
2019-03-27T16:55:50.237Z,8.45
2019-03-27T16:58:20.283Z,6.22
2019-03-27T17:00:52.545Z,8.28
2019-03-27T17:03:22.080Z,6.67
2019-03-27T17:05:54.136Z,7.92
2019-03-27T17:08:22.778Z,6.83
2019-03-27T17:10:51.963Z,6.45
2019-03-27T17:13:21.156Z,9.33
2019-03-27T17:15:50.585Z,15.50
2019-03-27T17:18:19.829Z,16.60
2019-03-27T17:20:50.985Z,18.17
2019-03-27T17:23:25.165Z,11.18
2019-03-27T17:25:54.379Z,6.67
2019-03-27T17:28:24.066Z,7.03
2019-03-27T17:30:53.165Z,6.22
2019-03-27T17:33:22.336Z,10.38
2019-03-27T17:35:51.500Z,7.95
2019-03-27T17:38:20.727Z,6.83
2019-03-27T17:40:49.934Z,6.55
2019-03-27T17:43:19.149Z,10.72
2019-03-27T17:45:48.261Z,7.97
2019-03-27T17:48:18.119Z,7.50
2019-03-27T17:50:50.508Z,9.90
2019-03-27T17:53:31.047Z,5.95
2019-03-27T17:55:50.471Z,8.43
2019-03-27T17:58:19.673Z,9.88
2019-03-27T18:01:02.322Z,4.80
2019-03-27T18:03:31.788Z,6.95
2019-03-27T18:06:00.906Z,9.05
2019-03-27T18:08:33.746Z,9.43
2019-03-27T18:11:02.860Z,48.07
2019-03-27T18:13:32.070Z,16.82
2019-03-27T18:16:01.245Z,6.87
2019-03-27T18:18:30.351Z,9.30
2019-03-27T18:21:03.421Z,6.20
2019-03-27T18:23:45.219Z,6.10
2019-03-27T18:26:03.853Z,9.23
2019-03-27T18:28:33.439Z,8.05
2019-03-27T18:31:02.899Z,13.48
2019-03-27T18:33:34.018Z,6.75
2019-03-27T18:36:04.569Z,18.50
2019-03-27T18:38:33.741Z,9.53
2019-03-27T18:41:03.689Z,7.75
2019-03-27T18:43:32.848Z,24.37
2019-03-27T18:46:02.728Z,12.55
2019-03-27T18:48:32.006Z,16.50
2019-03-27T18:51:01.164Z,14.45
2019-03-27T18:53:30.631Z,11.83
2019-03-27T18:56:02.868Z,13.10
2019-03-27T18:58:32.019Z,9.05
2019-03-27T19:01:05.049Z,9.08
2019-03-27T19:03:34.251Z,7.40
2019-03-27T19:06:08.411Z,10.65
2019-03-27T19:08:37.770Z,8.83
2019-03-27T19:11:06.890Z,12.40
2019-03-27T19:13:36.703Z,7.87
2019-03-27T19:16:06.090Z,7.83
2019-03-27T19:18:35.484Z,12.35
2019-03-27T19:21:04.585Z,8.40
2019-03-27T19:23:33.808Z,10.00
2019-03-27T19:26:02.989Z,9.98
2019-03-27T19:28:32.421Z,10.82
2019-03-27T19:31:04.970Z,7.62
2019-03-27T19:33:34.072Z,8.08
2019-03-27T19:36:07.251Z,12.63
2019-03-27T19:38:36.447Z,9.88
2019-03-27T19:41:06.893Z,8.95
2019-03-27T19:43:39.367Z,10.20
2019-03-27T19:46:08.865Z,12.05
2019-03-27T19:48:38.711Z,14.33
2019-03-27T19:51:11.138Z,10.15
2019-03-27T19:53:38.724Z,9.03
2019-03-27T19:56:07.871Z,9.03
2019-03-27T19:58:37.118Z,9.45
2019-03-27T20:01:06.253Z,8.93
2019-03-27T20:03:35.618Z,9.25
2019-03-27T20:06:07.797Z,8.78
2019-03-27T20:08:37.317Z,12.93
2019-03-27T20:11:06.467Z,8.78
2019-03-27T20:13:37.181Z,10.98
2019-03-27T20:16:06.288Z,12.63
2019-03-27T20:18:38.092Z,11.63
2019-03-27T20:21:07.211Z,11.85
2019-03-27T20:23:36.323Z,10.23
2019-03-27T20:26:06.169Z,9.68
2019-03-27T20:28:35.300Z,11.97
2019-03-27T20:31:04.417Z,12.20
2019-03-27T20:33:33.557Z,13.98
2019-03-27T20:36:03.131Z,13.58
2019-03-27T20:38:32.280Z,12.40
2019-03-27T20:41:04.708Z,8.28
2019-03-27T20:43:34.130Z,7.75
2019-03-27T20:46:03.228Z,12.90
2019-03-27T20:48:35.769Z,9.10
2019-03-27T20:51:05.993Z,13.85
2019-03-27T20:53:35.878Z,10.30
2019-03-27T20:56:05.122Z,9.85
2019-03-27T20:58:34.258Z,11.03
2019-03-27T21:01:03.797Z,17.50
2019-03-27T21:03:33.235Z,12.60
2019-03-27T21:06:05.718Z,14.33
2019-03-27T21:08:34.888Z,8.10
2019-03-27T21:11:03.991Z,11.10
2019-03-27T21:13:33.132Z,9.08
2019-03-27T21:16:05.638Z,12.05
2019-03-27T21:18:34.756Z,12.63
2019-03-27T21:21:03.853Z,11.43
2019-03-27T21:23:32.982Z,9.38
2019-03-27T21:26:09.488Z,13.00
2019-03-27T21:28:37.377Z,10.05
2019-03-27T21:31:06.754Z,11.08
2019-03-27T21:33:35.876Z,13.13
2019-03-27T21:36:08.422Z,12.68
2019-03-27T21:38:37.554Z,8.55
2019-03-27T21:41:07.681Z,10.93
2019-03-27T21:43:37.494Z,12.30
2019-03-27T21:46:07.365Z,11.78
2019-03-27T21:48:39.327Z,11.65
2019-03-27T21:51:08.450Z,17.32
2019-03-27T21:53:41.178Z,12.58
2019-03-27T21:56:12.188Z,16.03
2019-03-27T21:58:44.982Z,13.18
2019-03-27T22:01:14.923Z,13.43
2019-03-27T22:03:44.024Z,12.82
2019-03-27T22:06:13.175Z,14.15
2019-03-27T22:08:45.877Z,19.42
2019-03-27T22:11:15.676Z,13.13
2019-03-27T22:13:44.826Z,16.35
2019-03-27T22:16:13.929Z,14.68
2019-03-27T22:18:45.454Z,16.05
2019-03-27T22:21:14.592Z,13.68
2019-03-27T22:23:43.703Z,15.48
2019-03-27T22:26:12.820Z,14.38
2019-03-27T22:28:41.916Z,10.23
2019-03-27T22:31:11.054Z,9.55
2019-03-27T22:33:40.161Z,12.18
2019-03-27T22:36:09.693Z,13.90
2019-03-27T22:38:38.852Z,12.28
2019-03-27T22:41:08.315Z,15.25
2019-03-27T22:43:37.413Z,15.80
2019-03-27T22:46:06.518Z,17.02
2019-03-27T22:48:35.669Z,18.98
2019-03-27T22:51:07.256Z,16.02
2019-03-27T22:53:36.320Z,15.45
2019-03-27T22:56:07.137Z,15.78
2019-03-27T22:58:36.528Z,15.05
2019-03-27T23:01:05.656Z,18.57
2019-03-27T23:03:34.757Z,14.85
2019-03-27T23:06:04.291Z,17.20
2019-03-27T23:08:34.072Z,13.32
2019-03-27T23:11:03.195Z,16.12
2019-03-27T23:13:32.292Z,16.85
2019-03-27T23:16:01.411Z,15.15
2019-03-27T23:18:30.656Z,20.35
2019-03-27T23:20:59.795Z,16.80
2019-03-27T23:23:29.188Z,16.50
2019-03-27T23:26:03.272Z,16.85
2019-03-27T23:28:31.265Z,18.98
2019-03-27T23:31:00.661Z,15.93
2019-03-27T23:33:30.540Z,15.78
2019-03-27T23:36:00.080Z,15.65
2019-03-27T23:38:29.191Z,14.63
2019-03-27T23:40:58.609Z,18.77
2019-03-27T23:43:28.174Z,18.80
2019-03-27T23:45:57.998Z,20.65
2019-03-27T23:48:27.109Z,20.48
2019-03-27T23:50:56.930Z,22.62
2019-03-27T23:53:26.713Z,20.45
2019-03-27T23:55:55.965Z,20.32
2019-03-27T23:58:25.317Z,19.77
